sensor_id;sensor_type;location;lat;lon;timestamp;temperature;humidity
13880;DHT22;7010;48.200;16.332;2022-12-18T00:00:07;-0.10;99.90
13880;DHT22;7010;48.200;16.332;2022-12-18T00:02:35;-0.10;99.90
13880;DHT22;7010;48.200;16.332;2022-12-18T00:05:04;-0.10;99.90
13880;DHT22;7010;48.200;16.332;2022-12-18T00:07:35;-0.10;99.90
13880;DHT22;7010;48.200;16.332;2022-12-18T00:10:05;-0.20;99.90
13880;DHT22;7010;48.200;16.332;2022-12-18T00:12:35;-0.20;99.90
13880;DHT22;7010;48.200;16.332;2022-12-18T00:15:04;-0.30;99.90
13880;DHT22;7010;48.200;16.332;2022-12-18T00:17:33;-0.30;99.90
13880;DHT22;7010;48.200;16.332;2022-12-18T00:20:01;-0.30;99.90
13880;DHT22;7010;48.200;16.332;2022-12-18T00:22:30;-0.30;99.90
13880;DHT22;7010;48.200;16.332;2022-12-18T00:24:58;-0.30;99.90
13880;DHT22;7010;48.200;16.332;2022-12-18T00:27:26;-0.40;99.90
13880;DHT22;7010;48.200;16.332;2022-12-18T00:29:56;-0.50;99.90
13880;DHT22;7010;48.200;16.332;2022-12-18T00:32:24;-0.50;99.90
13880;DHT22;7010;48.200;16.332;2022-12-18T00:34:53;-0.60;99.90
13880;DHT22;7010;48.200;16.332;2022-12-18T00:37:21;-0.60;99.90
13880;DHT22;7010;48.200;16.332;2022-12-18T00:39:49;-0.70;99.90
13880;DHT22;7010;48.200;16.332;2022-12-18T00:42:17;-0.70;99.90
13880;DHT22;7010;48.200;16.332;2022-12-18T00:45:05;-0.70;99.90
13880;DHT22;7010;48.200;16.332;2022-12-18T00:47:39;-0.80;99.90
13880;DHT22;7010;48.200;16.332;2022-12-18T00:50:09;-0.80;99.90
13880;DHT22;7010;48.200;16.332;2022-12-18T00:52:40;-0.80;99.90
13880;DHT22;7010;48.200;16.332;2022-12-18T00:55:09;-0.80;99.90
13880;DHT22;7010;48.200;16.332;2022-12-18T00:57:38;-0.80;99.90
13880;DHT22;7010;48.200;16.332;2022-12-18T01:00:11;-0.90;99.90
13880;DHT22;7010;48.200;16.332;2022-12-18T01:02:40;-0.90;99.90
13880;DHT22;7010;48.200;16.332;2022-12-18T01:05:10;-0.90;99.90
13880;DHT22;7010;48.200;16.332;2022-12-18T01:07:39;-1.00;99.90
13880;DHT22;7010;48.200;16.332;2022-12-18T01:10:09;-1.00;99.90
13880;DHT22;7010;48.200;16.332;2022-12-18T01:12:37;-1.00;99.90
13880;DHT22;7010;48.200;16.332;2022-12-18T01:15:09;-1.00;99.90
13880;DHT22;7010;48.200;16.332;2022-12-18T01:17:37;-1.00;99.90
13880;DHT22;7010;48.200;16.332;2022-12-18T01:20:07;-1.00;99.90
13880;DHT22;7010;48.200;16.332;2022-12-18T01:22:35;-1.00;99.90
13880;DHT22;7010;48.200;16.332;2022-12-18T01:25:04;-1.00;99.90
13880;DHT22;7010;48.200;16.332;2022-12-18T01:27:34;-1.00;99.90
13880;DHT22;7010;48.200;16.332;2022-12-18T01:30:03;-1.10;99.90
13880;DHT22;7010;48.200;16.332;2022-12-18T01:32:33;-1.10;99.90
13880;DHT22;7010;48.200;16.332;2022-12-18T01:35:01;-1.20;99.90
13880;DHT22;7010;48.200;16.332;2022-12-18T01:37:29;-1.20;99.90
13880;DHT22;7010;48.200;16.332;2022-12-18T01:39:58;-1.20;99.90
13880;DHT22;7010;48.200;16.332;2022-12-18T01:42:26;-1.30;99.90
13880;DHT22;7010;48.200;16.332;2022-12-18T01:45:04;-1.30;99.90
13880;DHT22;7010;48.200;16.332;2022-12-18T01:47:38;-1.30;99.90
13880;DHT22;7010;48.200;16.332;2022-12-18T01:50:09;-1.40;99.90
13880;DHT22;7010;48.200;16.332;2022-12-18T01:52:42;-1.40;99.90
13880;DHT22;7010;48.200;16.332;2022-12-18T01:55:11;-1.40;99.90
13880;DHT22;7010;48.200;16.332;2022-12-18T01:57:40;-1.40;99.90
13880;DHT22;7010;48.200;16.332;2022-12-18T02:00:11;-1.40;99.90
13880;DHT22;7010;48.200;16.332;2022-12-18T02:02:43;-1.50;99.90
13880;DHT22;7010;48.200;16.332;2022-12-18T02:05:16;-1.40;99.90
13880;DHT22;7010;48.200;16.332;2022-12-18T02:07:51;-1.50;99.90
13880;DHT22;7010;48.200;16.332;2022-12-18T02:10:26;-1.50;99.90
13880;DHT22;7010;48.200;16.332;2022-12-18T02:13:02;-1.50;99.90
13880;DHT22;7010;48.200;16.332;2022-12-18T02:15:40;-1.50;99.90
13880;DHT22;7010;48.200;16.332;2022-12-18T02:18:15;-1.50;99.90
13880;DHT22;7010;48.200;16.332;2022-12-18T02:20:46;-1.50;99.90
13880;DHT22;7010;48.200;16.332;2022-12-18T02:23:24;-1.50;99.90
13880;DHT22;7010;48.200;16.332;2022-12-18T02:26:11;-1.60;99.90
13880;DHT22;7010;48.200;16.332;2022-12-18T02:28:45;-1.60;99.90
13880;DHT22;7010;48.200;16.332;2022-12-18T02:31:16;-1.60;99.90
13880;DHT22;7010;48.200;16.332;2022-12-18T02:33:51;-1.60;99.90
13880;DHT22;7010;48.200;16.332;2022-12-18T02:36:25;-1.60;99.90
13880;DHT22;7010;48.200;16.332;2022-12-18T02:38:56;-1.70;99.90
13880;DHT22;7010;48.200;16.332;2022-12-18T02:41:28;-1.60;99.90
13880;DHT22;7010;48.200;16.332;2022-12-18T02:44:01;-1.70;99.90
13880;DHT22;7010;48.200;16.332;2022-12-18T02:46:33;-1.70;99.90
13880;DHT22;7010;48.200;16.332;2022-12-18T02:49:09;-1.70;99.90
13880;DHT22;7010;48.200;16.332;2022-12-18T02:51:48;-1.70;99.90
13880;DHT22;7010;48.200;16.332;2022-12-18T02:54:26;-1.70;99.90
13880;DHT22;7010;48.200;16.332;2022-12-18T02:57:02;-1.80;99.90
13880;DHT22;7010;48.200;16.332;2022-12-18T02:59:38;-1.70;99.90
13880;DHT22;7010;48.200;16.332;2022-12-18T03:02:16;-1.70;99.90
13880;DHT22;7010;48.200;16.332;2022-12-18T03:04:50;-1.80;99.90
13880;DHT22;7010;48.200;16.332;2022-12-18T03:07:26;-1.70;99.90
13880;DHT22;7010;48.200;16.332;2022-12-18T03:09:56;-1.80;99.90
13880;DHT22;7010;48.200;16.332;2022-12-18T03:12:30;-1.80;99.90
13880;DHT22;7010;48.200;16.332;2022-12-18T03:15:00;-1.90;99.90
13880;DHT22;7010;48.200;16.332;2022-12-18T03:17:32;-1.80;99.90
13880;DHT22;7010;48.200;16.332;2022-12-18T03:20:05;-1.80;99.90
13880;DHT22;7010;48.200;16.332;2022-12-18T03:22:35;-1.90;99.90
13880;DHT22;7010;48.200;16.332;2022-12-18T03:25:07;-1.90;99.90
13880;DHT22;7010;48.200;16.332;2022-12-18T03:27:42;-1.90;99.90
13880;DHT22;7010;48.200;16.332;2022-12-18T03:30:13;-2.00;99.90
13880;DHT22;7010;48.200;16.332;2022-12-18T03:32:47;-2.00;99.90
13880;DHT22;7010;48.200;16.332;2022-12-18T03:35:23;-2.00;99.90
13880;DHT22;7010;48.200;16.332;2022-12-18T03:37:53;-2.00;99.90
13880;DHT22;7010;48.200;16.332;2022-12-18T03:40:27;-2.00;99.90
13880;DHT22;7010;48.200;16.332;2022-12-18T03:43:03;-2.00;99.90
13880;DHT22;7010;48.200;16.332;2022-12-18T03:45:38;-2.10;99.90
13880;DHT22;7010;48.200;16.332;2022-12-18T03:48:15;-2.10;99.90
13880;DHT22;7010;48.200;16.332;2022-12-18T03:50:49;-2.10;99.90
13880;DHT22;7010;48.200;16.332;2022-12-18T03:53:28;-2.10;99.90
13880;DHT22;7010;48.200;16.332;2022-12-18T03:56:01;-2.10;99.90
13880;DHT22;7010;48.200;16.332;2022-12-18T03:58:33;-2.10;99.90
13880;DHT22;7010;48.200;16.332;2022-12-18T04:01:08;-2.10;99.90
13880;DHT22;7010;48.200;16.332;2022-12-18T04:03:37;-2.10;99.90
13880;DHT22;7010;48.200;16.332;2022-12-18T04:06:07;-2.10;99.90
13880;DHT22;7010;48.200;16.332;2022-12-18T04:08:36;-2.10;99.90
13880;DHT22;7010;48.200;16.332;2022-12-18T04:11:05;-2.20;99.90
13880;DHT22;7010;48.200;16.332;2022-12-18T04:13:37;-2.20;99.90
13880;DHT22;7010;48.200;16.332;2022-12-18T04:16:07;-2.20;99.90
13880;DHT22;7010;48.200;16.332;2022-12-18T04:18:37;-2.30;99.90
13880;DHT22;7010;48.200;16.332;2022-12-18T04:21:05;-2.30;99.90
13880;DHT22;7010;48.200;16.332;2022-12-18T04:23:33;-2.30;99.90
13880;DHT22;7010;48.200;16.332;2022-12-18T04:26:02;-2.30;99.90
13880;DHT22;7010;48.200;16.332;2022-12-18T04:28:30;-2.30;99.90
13880;DHT22;7010;48.200;16.332;2022-12-18T04:31:00;-2.30;99.90
13880;DHT22;7010;48.200;16.332;2022-12-18T04:33:29;-2.40;99.90
13880;DHT22;7010;48.200;16.332;2022-12-18T04:35:57;-2.30;99.90
13880;DHT22;7010;48.200;16.332;2022-12-18T04:38:26;-2.30;99.90
13880;DHT22;7010;48.200;16.332;2022-12-18T04:40:54;-2.40;99.90
13880;DHT22;7010;48.200;16.332;2022-12-18T04:43:23;-2.40;99.90
13880;DHT22;7010;48.200;16.332;2022-12-18T04:45:51;-2.30;99.90
13880;DHT22;7010;48.200;16.332;2022-12-18T04:48:21;-2.30;99.90
13880;DHT22;7010;48.200;16.332;2022-12-18T04:50:50;-2.40;99.90
13880;DHT22;7010;48.200;16.332;2022-12-18T04:53:18;-2.40;99.90
13880;DHT22;7010;48.200;16.332;2022-12-18T04:55:46;-2.40;99.90
13880;DHT22;7010;48.200;16.332;2022-12-18T04:58:15;-2.40;99.90
13880;DHT22;7010;48.200;16.332;2022-12-18T05:00:44;-2.50;99.90
13880;DHT22;7010;48.200;16.332;2022-12-18T05:03:12;-2.50;99.90
13880;DHT22;7010;48.200;16.332;2022-12-18T05:05:42;-2.60;99.90
13880;DHT22;7010;48.200;16.332;2022-12-18T05:08:10;-2.60;99.90
13880;DHT22;7010;48.200;16.332;2022-12-18T05:10:39;-2.60;99.90
13880;DHT22;7010;48.200;16.332;2022-12-18T05:13:07;-2.60;99.90
13880;DHT22;7010;48.200;16.332;2022-12-18T05:15:35;-2.60;99.90
13880;DHT22;7010;48.200;16.332;2022-12-18T05:18:04;-2.60;99.90
13880;DHT22;7010;48.200;16.332;2022-12-18T05:20:32;-2.60;99.90
13880;DHT22;7010;48.200;16.332;2022-12-18T05:23:02;-2.60;99.90
13880;DHT22;7010;48.200;16.332;2022-12-18T05:25:31;-2.60;99.90
13880;DHT22;7010;48.200;16.332;2022-12-18T05:27:59;-2.70;99.90
13880;DHT22;7010;48.200;16.332;2022-12-18T05:30:27;-2.70;99.90
13880;DHT22;7010;48.200;16.332;2022-12-18T05:32:56;-2.70;99.90
13880;DHT22;7010;48.200;16.332;2022-12-18T05:35:25;-2.70;99.90
13880;DHT22;7010;48.200;16.332;2022-12-18T05:37:53;-2.70;99.90
13880;DHT22;7010;48.200;16.332;2022-12-18T05:40:23;-2.60;99.90
13880;DHT22;7010;48.200;16.332;2022-12-18T05:42:52;-2.70;99.90
13880;DHT22;7010;48.200;16.332;2022-12-18T05:45:20;-2.70;99.90
13880;DHT22;7010;48.200;16.332;2022-12-18T05:47:49;-2.70;99.90
13880;DHT22;7010;48.200;16.332;2022-12-18T05:50:17;-2.70;99.90
13880;DHT22;7010;48.200;16.332;2022-12-18T05:52:45;-2.70;99.90
13880;DHT22;7010;48.200;16.332;2022-12-18T05:55:14;-2.80;99.90
13880;DHT22;7010;48.200;16.332;2022-12-18T05:57:44;-2.80;99.90
13880;DHT22;7010;48.200;16.332;2022-12-18T06:00:13;-2.90;99.90
13880;DHT22;7010;48.200;16.332;2022-12-18T06:02:42;-3.00;99.90
13880;DHT22;7010;48.200;16.332;2022-12-18T06:05:14;-3.00;99.90
13880;DHT22;7010;48.200;16.332;2022-12-18T06:07:43;-2.90;99.90
13880;DHT22;7010;48.200;16.332;2022-12-18T06:10:11;-2.90;99.90
13880;DHT22;7010;48.200;16.332;2022-12-18T06:12:41;-2.90;99.90
13880;DHT22;7010;48.200;16.332;2022-12-18T06:15:11;-2.90;99.90
13880;DHT22;7010;48.200;16.332;2022-12-18T06:17:39;-3.00;99.90
13880;DHT22;7010;48.200;16.332;2022-12-18T06:20:09;-3.00;99.90
13880;DHT22;7010;48.200;16.332;2022-12-18T06:22:37;-3.10;99.90
13880;DHT22;7010;48.200;16.332;2022-12-18T06:25:06;-3.00;99.90
13880;DHT22;7010;48.200;16.332;2022-12-18T06:27:35;-3.00;99.90
13880;DHT22;7010;48.200;16.332;2022-12-18T06:30:05;-3.10;99.90
13880;DHT22;7010;48.200;16.332;2022-12-18T06:32:35;-3.00;99.90
13880;DHT22;7010;48.200;16.332;2022-12-18T06:35:04;-3.10;99.90
13880;DHT22;7010;48.200;16.332;2022-12-18T06:37:33;-3.10;99.90
13880;DHT22;7010;48.200;16.332;2022-12-18T06:40:01;-3.00;99.90
13880;DHT22;7010;48.200;16.332;2022-12-18T06:42:30;-3.10;99.90
13880;DHT22;7010;48.200;16.332;2022-12-18T06:44:58;-3.10;99.90
13880;DHT22;7010;48.200;16.332;2022-12-18T06:47:27;-3.00;99.90
13880;DHT22;7010;48.200;16.332;2022-12-18T06:49:57;-3.00;99.90
13880;DHT22;7010;48.200;16.332;2022-12-18T06:52:25;-3.00;99.90
13880;DHT22;7010;48.200;16.332;2022-12-18T06:54:54;-3.00;99.90
13880;DHT22;7010;48.200;16.332;2022-12-18T06:57:22;-3.00;99.90
13880;DHT22;7010;48.200;16.332;2022-12-18T06:59:50;-3.00;99.90
13880;DHT22;7010;48.200;16.332;2022-12-18T07:02:19;-3.00;99.90
13880;DHT22;7010;48.200;16.332;2022-12-18T07:04:50;-3.00;99.90
13880;DHT22;7010;48.200;16.332;2022-12-18T07:07:20;-3.00;99.90
13880;DHT22;7010;48.200;16.332;2022-12-18T07:09:49;-3.00;99.90
13880;DHT22;7010;48.200;16.332;2022-12-18T07:12:18;-2.90;99.90
13880;DHT22;7010;48.200;16.332;2022-12-18T07:14:46;-2.90;99.90
13880;DHT22;7010;48.200;16.332;2022-12-18T07:17:15;-2.90;99.90
13880;DHT22;7010;48.200;16.332;2022-12-18T07:19:43;-2.80;99.90
13880;DHT22;7010;48.200;16.332;2022-12-18T07:22:11;-2.80;99.90
13880;DHT22;7010;48.200;16.332;2022-12-18T07:24:41;-2.80;99.90
13880;DHT22;7010;48.200;16.332;2022-12-18T07:27:10;-2.80;99.90
13880;DHT22;7010;48.200;16.332;2022-12-18T07:29:39;-2.80;99.90
13880;DHT22;7010;48.200;16.332;2022-12-18T07:32:07;-2.80;99.90
13880;DHT22;7010;48.200;16.332;2022-12-18T07:34:36;-2.70;99.90
13880;DHT22;7010;48.200;16.332;2022-12-18T07:37:04;-2.70;99.90
13880;DHT22;7010;48.200;16.332;2022-12-18T07:39:33;-2.70;99.90
13880;DHT22;7010;48.200;16.332;2022-12-18T07:42:03;-2.70;99.90
13880;DHT22;7010;48.200;16.332;2022-12-18T07:44:50;-2.60;99.90
13880;DHT22;7010;48.200;16.332;2022-12-18T07:47:18;-2.60;99.90
13880;DHT22;7010;48.200;16.332;2022-12-18T07:49:47;-2.50;99.90
13880;DHT22;7010;48.200;16.332;2022-12-18T07:52:15;-2.50;99.90
13880;DHT22;7010;48.200;16.332;2022-12-18T07:54:51;-2.50;99.90
13880;DHT22;7010;48.200;16.332;2022-12-18T07:57:21;-2.40;99.90
13880;DHT22;7010;48.200;16.332;2022-12-18T08:00:11;-2.40;99.90
13880;DHT22;7010;48.200;16.332;2022-12-18T08:02:39;-2.30;99.90
13880;DHT22;7010;48.200;16.332;2022-12-18T08:05:08;-2.20;99.90
13880;DHT22;7010;48.200;16.332;2022-12-18T08:07:37;-2.20;99.90
13880;DHT22;7010;48.200;16.332;2022-12-18T08:10:06;-2.10;99.90
13880;DHT22;7010;48.200;16.332;2022-12-18T08:12:37;-2.00;99.90
13880;DHT22;7010;48.200;16.332;2022-12-18T08:15:06;-2.00;99.90
13880;DHT22;7010;48.200;16.332;2022-12-18T08:17:34;-1.90;99.90
13880;DHT22;7010;48.200;16.332;2022-12-18T08:20:03;-1.90;99.90
13880;DHT22;7010;48.200;16.332;2022-12-18T08:22:33;-1.90;99.90
13880;DHT22;7010;48.200;16.332;2022-12-18T08:25:07;-1.80;99.90
13880;DHT22;7010;48.200;16.332;2022-12-18T08:27:37;-1.70;99.90
13880;DHT22;7010;48.200;16.332;2022-12-18T08:30:07;-1.70;99.90
13880;DHT22;7010;48.200;16.332;2022-12-18T08:32:35;-1.60;99.90
13880;DHT22;7010;48.200;16.332;2022-12-18T08:35:05;-1.50;99.90
13880;DHT22;7010;48.200;16.332;2022-12-18T08:37:35;-1.50;99.90
13880;DHT22;7010;48.200;16.332;2022-12-18T08:40:06;-1.40;99.90
13880;DHT22;7010;48.200;16.332;2022-12-18T08:42:36;-1.40;99.90
13880;DHT22;7010;48.200;16.332;2022-12-18T08:45:22;-1.30;99.90
13880;DHT22;7010;48.200;16.332;2022-12-18T08:47:51;-1.30;99.90
13880;DHT22;7010;48.200;16.332;2022-12-18T08:50:20;-1.30;99.90
13880;DHT22;7010;48.200;16.332;2022-12-18T08:52:49;-1.20;99.90
13880;DHT22;7010;48.200;16.332;2022-12-18T08:55:17;-1.10;99.90
13880;DHT22;7010;48.200;16.332;2022-12-18T08:57:49;-1.10;99.90
13880;DHT22;7010;48.200;16.332;2022-12-18T09:00:18;-1.00;99.90
13880;DHT22;7010;48.200;16.332;2022-12-18T09:02:47;-1.00;99.90
13880;DHT22;7010;48.200;16.332;2022-12-18T09:05:16;-0.90;99.90
13880;DHT22;7010;48.200;16.332;2022-12-18T09:07:44;-0.90;99.90
13880;DHT22;7010;48.200;16.332;2022-12-18T09:10:12;-0.90;99.90
13880;DHT22;7010;48.200;16.332;2022-12-18T09:12:41;-0.90;99.90
13880;DHT22;7010;48.200;16.332;2022-12-18T09:15:11;-0.80;99.90
13880;DHT22;7010;48.200;16.332;2022-12-18T09:17:39;-0.90;99.90
13880;DHT22;7010;48.200;16.332;2022-12-18T09:20:09;-0.90;99.90
13880;DHT22;7010;48.200;16.332;2022-12-18T09:22:38;-0.90;99.90
13880;DHT22;7010;48.200;16.332;2022-12-18T09:25:06;-0.90;99.90
13880;DHT22;7010;48.200;16.332;2022-12-18T09:27:35;-0.90;99.90
13880;DHT22;7010;48.200;16.332;2022-12-18T09:30:05;-0.90;99.90
13880;DHT22;7010;48.200;16.332;2022-12-18T09:32:35;-0.90;99.90
13880;DHT22;7010;48.200;16.332;2022-12-18T09:35:04;-0.90;99.90
13880;DHT22;7010;48.200;16.332;2022-12-18T09:37:35;-0.80;99.90
13880;DHT22;7010;48.200;16.332;2022-12-18T09:40:04;-0.80;99.90
13880;DHT22;7010;48.200;16.332;2022-12-18T09:42:33;-0.80;99.90
13880;DHT22;7010;48.200;16.332;2022-12-18T09:45:03;-0.70;99.90
13880;DHT22;7010;48.200;16.332;2022-12-18T09:47:37;-0.70;99.90
13880;DHT22;7010;48.200;16.332;2022-12-18T09:50:19;-0.60;99.90
13880;DHT22;7010;48.200;16.332;2022-12-18T09:52:53;-0.60;99.90
13880;DHT22;7010;48.200;16.332;2022-12-18T09:55:25;-0.60;99.90
13880;DHT22;7010;48.200;16.332;2022-12-18T09:58:07;-0.60;99.90
13880;DHT22;7010;48.200;16.332;2022-12-18T10:00:43;-0.60;99.90
13880;DHT22;7010;48.200;16.332;2022-12-18T10:03:17;-0.60;99.90
13880;DHT22;7010;48.200;16.332;2022-12-18T10:05:54;-0.50;99.90
13880;DHT22;7010;48.200;16.332;2022-12-18T10:08:33;-0.50;99.90
13880;DHT22;7010;48.200;16.332;2022-12-18T10:11:21;-0.50;99.90
13880;DHT22;7010;48.200;16.332;2022-12-18T10:13:55;-0.50;99.90
13880;DHT22;7010;48.200;16.332;2022-12-18T10:16:29;-0.50;99.90
13880;DHT22;7010;48.200;16.332;2022-12-18T10:19:20;-0.50;99.90
13880;DHT22;7010;48.200;16.332;2022-12-18T10:21:56;-0.50;99.90
13880;DHT22;7010;48.200;16.332;2022-12-18T10:24:33;-0.50;99.90
13880;DHT22;7010;48.200;16.332;2022-12-18T10:27:12;-0.60;99.90
13880;DHT22;7010;48.200;16.332;2022-12-18T10:29:42;-0.50;99.90
13880;DHT22;7010;48.200;16.332;2022-12-18T10:32:15;-0.50;99.90
13880;DHT22;7010;48.200;16.332;2022-12-18T10:34:52;-0.40;99.90
13880;DHT22;7010;48.200;16.332;2022-12-18T10:37:29;-0.50;99.90
13880;DHT22;7010;48.200;16.332;2022-12-18T10:40:10;-0.40;99.90
13880;DHT22;7010;48.200;16.332;2022-12-18T10:42:45;-0.40;99.90
13880;DHT22;7010;48.200;16.332;2022-12-18T10:45:16;-0.40;99.90
13880;DHT22;7010;48.200;16.332;2022-12-18T10:47:47;-0.40;99.90
13880;DHT22;7010;48.200;16.332;2022-12-18T10:50:25;-0.40;99.90
13880;DHT22;7010;48.200;16.332;2022-12-18T10:53:19;-0.40;99.90
13880;DHT22;7010;48.200;16.332;2022-12-18T10:55:49;-0.50;99.90
13880;DHT22;7010;48.200;16.332;2022-12-18T10:58:23;-0.50;99.90
13880;DHT22;7010;48.200;16.332;2022-12-18T11:01:08;-0.50;99.90
13880;DHT22;7010;48.200;16.332;2022-12-18T11:03:39;-0.60;99.90
13880;DHT22;7010;48.200;16.332;2022-12-18T11:06:26;-0.60;99.90
13880;DHT22;7010;48.200;16.332;2022-12-18T11:08:59;-0.60;99.90
13880;DHT22;7010;48.200;16.332;2022-12-18T11:11:28;-0.60;99.90
13880;DHT22;7010;48.200;16.332;2022-12-18T11:14:03;-0.60;99.90
13880;DHT22;7010;48.200;16.332;2022-12-18T11:16:35;-0.60;99.90
13880;DHT22;7010;48.200;16.332;2022-12-18T11:19:14;-0.60;99.90
13880;DHT22;7010;48.200;16.332;2022-12-18T11:21:50;-0.60;99.90
13880;DHT22;7010;48.200;16.332;2022-12-18T11:24:33;-0.60;99.90
13880;DHT22;7010;48.200;16.332;2022-12-18T11:27:04;-0.60;99.90
13880;DHT22;7010;48.200;16.332;2022-12-18T11:29:37;-0.60;99.90
13880;DHT22;7010;48.200;16.332;2022-12-18T11:32:37;-0.60;99.90
13880;DHT22;7010;48.200;16.332;2022-12-18T11:35:19;-0.50;99.90
13880;DHT22;7010;48.200;16.332;2022-12-18T11:37:56;-0.60;99.90
13880;DHT22;7010;48.200;16.332;2022-12-18T11:40:30;-0.60;99.90
13880;DHT22;7010;48.200;16.332;2022-12-18T11:43:11;-0.60;99.90
13880;DHT22;7010;48.200;16.332;2022-12-18T11:45:47;-0.60;99.90
13880;DHT22;7010;48.200;16.332;2022-12-18T11:48:21;-0.40;99.90
13880;DHT22;7010;48.200;16.332;2022-12-18T11:50:52;-0.40;99.90
13880;DHT22;7010;48.200;16.332;2022-12-18T11:53:23;-0.40;99.90
13880;DHT22;7010;48.200;16.332;2022-12-18T11:56:07;-0.30;99.90
13880;DHT22;7010;48.200;16.332;2022-12-18T11:58:46;-0.20;99.90
13880;DHT22;7010;48.200;16.332;2022-12-18T12:01:34;-0.20;99.90
13880;DHT22;7010;48.200;16.332;2022-12-18T12:04:29;-0.20;99.90
13880;DHT22;7010;48.200;16.332;2022-12-18T12:07:07;-0.20;99.90
13880;DHT22;7010;48.200;16.332;2022-12-18T12:09:50;-0.30;99.90
13880;DHT22;7010;48.200;16.332;2022-12-18T12:12:31;-0.40;99.90
13880;DHT22;7010;48.200;16.332;2022-12-18T12:15:25;-0.30;99.90
13880;DHT22;7010;48.200;16.332;2022-12-18T12:18:01;-0.40;99.90
13880;DHT22;7010;48.200;16.332;2022-12-18T12:20:45;-0.40;99.90
13880;DHT22;7010;48.200;16.332;2022-12-18T12:23:22;-0.40;99.90
13880;DHT22;7010;48.200;16.332;2022-12-18T12:26:01;-0.30;99.90
13880;DHT22;7010;48.200;16.332;2022-12-18T12:28:50;-0.40;99.90
13880;DHT22;7010;48.200;16.332;2022-12-18T12:31:31;-0.30;99.90
13880;DHT22;7010;48.200;16.332;2022-12-18T12:34:12;-0.20;99.90
13880;DHT22;7010;48.200;16.332;2022-12-18T12:36:56;-0.20;99.90
13880;DHT22;7010;48.200;16.332;2022-12-18T12:39:31;-0.20;99.90
13880;DHT22;7010;48.200;16.332;2022-12-18T12:42:04;-0.20;99.90
13880;DHT22;7010;48.200;16.332;2022-12-18T12:44:55;-0.20;99.90
13880;DHT22;7010;48.200;16.332;2022-12-18T12:47:28;-0.10;99.90
13880;DHT22;7010;48.200;16.332;2022-12-18T12:50:01;-0.10;99.90
13880;DHT22;7010;48.200;16.332;2022-12-18T12:52:37;-0.10;99.90
13880;DHT22;7010;48.200;16.332;2022-12-18T12:55:16;-0.20;99.90
13880;DHT22;7010;48.200;16.332;2022-12-18T12:57:54;-0.20;99.90
13880;DHT22;7010;48.200;16.332;2022-12-18T13:00:25;-0.20;99.90
13880;DHT22;7010;48.200;16.332;2022-12-18T13:03:00;-0.20;99.90
13880;DHT22;7010;48.200;16.332;2022-12-18T13:05:33;-0.20;99.90
13880;DHT22;7010;48.200;16.332;2022-12-18T13:08:04;-0.20;99.90
13880;DHT22;7010;48.200;16.332;2022-12-18T13:10:36;-0.30;99.90
13880;DHT22;7010;48.200;16.332;2022-12-18T13:13:08;-0.30;99.90
13880;DHT22;7010;48.200;16.332;2022-12-18T13:15:39;-0.30;99.90
13880;DHT22;7010;48.200;16.332;2022-12-18T13:18:25;-0.30;99.90
13880;DHT22;7010;48.200;16.332;2022-12-18T13:21:03;-0.30;99.90
13880;DHT22;7010;48.200;16.332;2022-12-18T13:23:39;-0.40;99.90
13880;DHT22;7010;48.200;16.332;2022-12-18T13:26:33;-0.40;99.90
13880;DHT22;7010;48.200;16.332;2022-12-18T13:29:04;-0.40;99.90
13880;DHT22;7010;48.200;16.332;2022-12-18T13:34:29;-0.40;99.90
13880;DHT22;7010;48.200;16.332;2022-12-18T13:40:01;-0.50;99.90
13880;DHT22;7010;48.200;16.332;2022-12-18T13:42:40;-0.50;99.90
13880;DHT22;7010;48.200;16.332;2022-12-18T13:45:43;-0.50;99.90
13880;DHT22;7010;48.200;16.332;2022-12-18T13:48:22;-0.50;99.90
13880;DHT22;7010;48.200;16.332;2022-12-18T13:51:02;-0.60;99.90
13880;DHT22;7010;48.200;16.332;2022-12-18T13:53:48;-0.60;99.90
13880;DHT22;7010;48.200;16.332;2022-12-18T13:56:23;-0.60;99.90
13880;DHT22;7010;48.200;16.332;2022-12-18T13:59:15;-0.60;99.90
13880;DHT22;7010;48.200;16.332;2022-12-18T14:01:52;-0.60;99.90
13880;DHT22;7010;48.200;16.332;2022-12-18T14:04:26;-0.60;99.90
13880;DHT22;7010;48.200;16.332;2022-12-18T14:06:57;-0.60;99.90
13880;DHT22;7010;48.200;16.332;2022-12-18T14:09:31;-0.60;99.90
13880;DHT22;7010;48.200;16.332;2022-12-18T14:12:05;-0.60;99.90
13880;DHT22;7010;48.200;16.332;2022-12-18T14:14:53;-0.70;99.90
13880;DHT22;7010;48.200;16.332;2022-12-18T14:17:23;-0.70;99.90
13880;DHT22;7010;48.200;16.332;2022-12-18T14:19:52;-0.70;99.90
13880;DHT22;7010;48.200;16.332;2022-12-18T14:22:23;-0.70;99.90
13880;DHT22;7010;48.200;16.332;2022-12-18T14:25:14;-0.70;99.90
13880;DHT22;7010;48.200;16.332;2022-12-18T14:27:44;-0.70;99.90
13880;DHT22;7010;48.200;16.332;2022-12-18T14:30:30;-0.70;99.90
13880;DHT22;7010;48.200;16.332;2022-12-18T14:33:05;-0.70;99.90
13880;DHT22;7010;48.200;16.332;2022-12-18T14:35:36;-0.80;99.90
13880;DHT22;7010;48.200;16.332;2022-12-18T14:38:22;-0.80;99.90
13880;DHT22;7010;48.200;16.332;2022-12-18T14:41:10;-0.80;99.90
13880;DHT22;7010;48.200;16.332;2022-12-18T14:43:41;-0.70;99.90
13880;DHT22;7010;48.200;16.332;2022-12-18T14:46:29;-0.70;99.90
13880;DHT22;7010;48.200;16.332;2022-12-18T14:49:02;-0.70;99.90
13880;DHT22;7010;48.200;16.332;2022-12-18T14:51:32;-0.80;99.90
13880;DHT22;7010;48.200;16.332;2022-12-18T14:54:03;-0.80;99.90
13880;DHT22;7010;48.200;16.332;2022-12-18T14:56:36;-0.70;99.90
13880;DHT22;7010;48.200;16.332;2022-12-18T14:59:14;-0.70;99.90
13880;DHT22;7010;48.200;16.332;2022-12-18T15:01:59;-0.80;99.90
13880;DHT22;7010;48.200;16.332;2022-12-18T15:04:32;-0.80;99.90
13880;DHT22;7010;48.200;16.332;2022-12-18T15:07:12;-0.80;99.90
13880;DHT22;7010;48.200;16.332;2022-12-18T15:10:03;-0.70;99.90
13880;DHT22;7010;48.200;16.332;2022-12-18T15:12:34;-0.80;99.90
13880;DHT22;7010;48.200;16.332;2022-12-18T15:15:04;-0.80;99.90
13880;DHT22;7010;48.200;16.332;2022-12-18T15:17:33;-0.80;99.90
13880;DHT22;7010;48.200;16.332;2022-12-18T15:20:09;-0.80;99.90
13880;DHT22;7010;48.200;16.332;2022-12-18T15:22:38;-0.80;99.90
13880;DHT22;7010;48.200;16.332;2022-12-18T15:25:26;-0.80;99.90
13880;DHT22;7010;48.200;16.332;2022-12-18T15:27:56;-0.80;99.90
13880;DHT22;7010;48.200;16.332;2022-12-18T15:30:25;-0.80;99.90
13880;DHT22;7010;48.200;16.332;2022-12-18T15:33:22;-0.80;99.90
13880;DHT22;7010;48.200;16.332;2022-12-18T15:35:57;-0.80;99.90
13880;DHT22;7010;48.200;16.332;2022-12-18T15:38:27;-0.80;99.90
13880;DHT22;7010;48.200;16.332;2022-12-18T15:40:56;-0.80;99.90
13880;DHT22;7010;48.200;16.332;2022-12-18T15:43:25;-0.80;99.90
13880;DHT22;7010;48.200;16.332;2022-12-18T15:46:04;-0.80;99.90
13880;DHT22;7010;48.200;16.332;2022-12-18T15:48:33;-0.80;99.90
13880;DHT22;7010;48.200;16.332;2022-12-18T15:51:08;-0.80;99.90
13880;DHT22;7010;48.200;16.332;2022-12-18T15:53:38;-0.80;99.90
13880;DHT22;7010;48.200;16.332;2022-12-18T15:56:09;-0.70;99.90
13880;DHT22;7010;48.200;16.332;2022-12-18T15:58:55;-0.70;99.90
13880;DHT22;7010;48.200;16.332;2022-12-18T16:01:26;-0.70;99.90
13880;DHT22;7010;48.200;16.332;2022-12-18T16:03:55;-0.70;99.90
13880;DHT22;7010;48.200;16.332;2022-12-18T16:06:25;-0.70;99.90
13880;DHT22;7010;48.200;16.332;2022-12-18T16:09:12;-0.80;99.90
13880;DHT22;7010;48.200;16.332;2022-12-18T16:11:42;-0.80;99.90